Time;durP1;ratioP1;P1;durP2;ratioP2;P2;SDS_P1;SDS_P2;PMS_P1;PMS_P2;Temp;Humidity;BMP_temperature;BMP_pressure;BME280_temperature;BME280_humidity;BME280_pressure;Samples;Min_cycle;Max_cycle;Signal;HPM_P1;HPM_P2
2020/12/23 00:02:10;;;;;;;32.42;17.70;;;;;;;-3.16;100.00;99808.64;1666286;84;21383;-70
2020/12/23 00:04:38;;;;;;;27.42;14.85;;;;;;;-3.16;100.00;99816.05;1662228;84;21678;-69
2020/12/23 00:07:07;;;;;;;28.52;15.32;;;;;;;-3.16;100.00;99806.87;1662060;84;20940;-69
2020/12/23 00:09:34;;;;;;;24.50;13.45;;;;;;;-3.16;100.00;99808.64;1664793;84;21451;-70
2020/12/23 00:12:03;;;;;;;27.07;16.00;;;;;;;-3.17;100.00;99798.64;1663772;84;21682;-68
2020/12/23 00:14:32;;;;;;;31.55;17.82;;;;;;;-3.17;100.00;99796.02;1663614;84;21441;-69
2020/12/23 00:17:00;;;;;;;27.85;14.18;;;;;;;-3.17;100.00;99793.89;1664971;84;21595;-71
2020/12/23 00:19:28;;;;;;;22.20;11.70;;;;;;;-3.18;100.00;99787.00;1662202;84;21601;-69
2020/12/23 00:21:56;;;;;;;25.65;12.60;;;;;;;-3.18;100.00;99791.76;1667807;84;21768;-69
2020/12/23 00:24:24;;;;;;;27.07;14.83;;;;;;;-3.18;100.00;99790.94;1660665;84;22569;-71
2020/12/23 00:26:52;;;;;;;25.10;14.05;;;;;;;-3.19;100.00;99786.16;1662748;84;21114;-71
2020/12/23 00:29:20;;;;;;;26.80;14.35;;;;;;;-3.20;100.00;99777.14;1655771;84;27360;-70
2020/12/23 00:31:52;;;;;;;31.55;17.12;;;;;;;-3.20;100.00;99783.21;1664780;84;21119;-71
2020/12/23 00:34:21;;;;;;;19.70;12.40;;;;;;;-3.21;100.00;99767.11;1665430;84;21007;-70
2020/12/23 00:36:59;;;;;;;25.00;13.78;;;;;;;-3.22;100.00;99756.29;1663423;84;25947;-70
2020/12/23 00:39:27;;;;;;;24.35;12.33;;;;;;;-3.23;100.00;99765.16;1664833;84;26690;-69
2020/12/23 00:41:55;;;;;;;19.87;12.37;;;;;;;-3.24;100.00;99755.13;1663971;84;21086;-69
2020/12/23 00:44:24;;;;;;;19.77;10.88;;;;;;;-3.25;100.00;99750.87;1663500;85;21079;-70
2020/12/23 00:46:52;;;;;;;23.25;14.33;;;;;;;-3.24;100.00;99751.69;1663281;84;21186;-70
2020/12/23 00:49:20;;;;;;;19.55;13.03;;;;;;;-3.24;100.00;99751.69;1664652;85;21839;-69
2020/12/23 00:51:51;;;;;;;28.23;12.80;;;;;;;-3.24;100.00;99736.75;1662674;86;21230;-70
2020/12/23 00:54:19;;;;;;;20.48;11.03;;;;;;;-3.26;100.00;99746.61;1668301;85;21090;-70
2020/12/23 00:56:47;;;;;;;28.70;14.10;;;;;;;-3.25;100.00;99739.55;1664292;85;21107;-71
2020/12/23 00:59:15;;;;;;;25.40;14.73;;;;;;;-3.25;100.00;99736.92;1664065;84;21079;-69
2020/12/23 01:01:43;;;;;;;29.45;14.35;;;;;;;-3.25;100.00;99724.62;1665565;84;21221;-69
2020/12/23 01:04:11;;;;;;;21.80;11.80;;;;;;;-3.23;100.00;99732.34;1664951;84;21574;-69
2020/12/23 01:06:39;;;;;;;20.95;12.45;;;;;;;-3.23;100.00;99729.72;1662919;84;21198;-70
2020/12/23 01:09:07;;;;;;;31.40;14.23;;;;;;;-3.23;100.00;99727.09;1663507;85;21645;-71
2020/12/23 01:11:34;;;;;;;27.02;12.30;;;;;;;-3.24;100.00;99722.80;1661070;85;21083;-70
2020/12/23 01:14:02;;;;;;;25.72;14.35;;;;;;;-3.22;100.00;99719.53;1637196;85;21601;-71
2020/12/23 01:16:30;;;;;;;29.57;13.75;;;;;;;-3.21;100.00;99717.72;1664217;84;21678;-72
2020/12/23 01:18:57;;;;;;;28.30;15.85;;;;;;;-3.22;100.00;99702.47;1664603;84;21527;-71
2020/12/23 01:21:25;;;;;;;29.60;12.97;;;;;;;-3.21;100.00;99705.91;1661002;84;21110;-71
2020/12/23 01:23:53;;;;;;;28.38;14.78;;;;;;;-3.21;100.00;99709.84;1663025;84;21216;-69
2020/12/23 01:26:21;;;;;;;24.43;10.50;;;;;;;-3.21;100.00;99709.84;1661101;85;21301;-70
2020/12/23 01:28:49;;;;;;;22.37;13.45;;;;;;;-3.20;100.00;99712.82;1662396;84;21331;-71
2020/12/23 01:31:17;;;;;;;27.25;13.03;;;;;;;-3.21;100.00;99713.78;1663518;85;21035;-70
2020/12/23 01:33:47;;;;;;;31.55;16.10;;;;;;;-3.21;100.00;99702.78;1660623;84;21090;-72
2020/12/23 01:36:14;;;;;;;27.98;15.08;;;;;;;-3.21;100.00;99711.97;1663444;84;21079;-71
2020/12/23 01:38:43;;;;;;;32.48;13.53;;;;;;;-3.20;100.00;99704.45;1667147;84;22297;-70
2020/12/23 01:41:11;;;;;;;21.27;11.68;;;;;;;-3.20;100.00;99695.75;1659581;85;21189;-71
2020/12/23 01:43:40;;;;;;;21.27;12.23;;;;;;;-3.20;100.00;99699.69;1664341;84;21116;-70
2020/12/23 01:46:09;;;;;;;26.20;14.33;;;;;;;-3.24;100.00;99682.93;1662675;84;21244;-70
2020/12/23 01:48:38;;;;;;;30.08;15.03;;;;;;;-3.21;100.00;99696.72;1662522;84;21067;-70
2020/12/23 01:51:06;;;;;;;32.03;13.85;;;;;;;-3.24;100.00;99678.17;1662545;84;21393;-69
2020/12/23 01:53:34;;;;;;;24.37;14.03;;;;;;;-3.23;100.00;99683.77;1662967;85;21122;-70
2020/12/23 01:56:03;;;;;;;28.25;15.48;;;;;;;-3.25;100.00;99683.92;1669468;85;21078;-70
2020/12/23 01:58:31;;;;;;;26.65;13.20;;;;;;;-3.26;100.00;99685.38;1637931;85;21184;-71
2020/12/23 02:01:01;;;;;;;22.75;14.23;;;;;;;-3.27;100.00;99683.26;1665903;84;21225;-70
2020/12/23 02:03:28;;;;;;;26.42;14.23;;;;;;;-3.28;100.00;99686.88;1662677;84;21743;-70
2020/12/23 02:05:57;;;;;;;25.30;13.55;;;;;;;-3.32;100.00;99677.67;1669622;84;21229;-71
2020/12/23 02:08:25;;;;;;;31.82;15.20;;;;;;;-3.35;100.00;99671.94;1666384;84;21252;-68
2020/12/23 02:10:53;;;;;;;24.43;12.47;;;;;;;-3.38;100.00;99678.33;1664994;84;21091;-69
2020/12/23 02:13:46;;;;;;;29.55;15.72;;;;;;;-3.44;100.00;99669.77;1665938;84;21185;-72
2020/12/23 02:16:14;;;;;;;29.02;15.20;;;;;;;-3.47;100.00;99656.98;1647056;85;22220;-69
2020/12/23 02:18:43;;;;;;;25.02;11.80;;;;;;;-3.48;100.00;99671.91;1650817;85;21190;-69
2020/12/23 02:21:15;;;;;;;25.35;13.28;;;;;;;-3.51;100.00;99663.52;1651103;85;21645;-71
2020/12/23 02:23:44;;;;;;;29.05;15.30;;;;;;;-3.54;100.00;99672.53;1620709;85;21700;-71
2020/12/23 02:26:13;;;;;;;31.30;17.23;;;;;;;-3.54;100.00;99666.47;1654025;86;21511;-69
2020/12/23 02:28:41;;;;;;;25.88;12.73;;;;;;;-3.56;100.00;99667.93;1661474;86;21211;-69
2020/12/23 02:31:09;;;;;;;25.95;14.05;;;;;;;-3.57;100.00;99660.23;1660933;85;21219;-70
2020/12/23 02:33:38;;;;;;;30.15;14.00;;;;;;;-3.61;100.00;99644.47;1661253;86;21385;-70
2020/12/23 02:36:08;;;;;;;28.60;13.88;;;;;;;-3.63;100.00;99658.23;1648263;85;21197;-70
2020/12/23 02:38:37;;;;;;;27.80;15.30;;;;;;;-3.66;100.00;99651.51;1652351;85;21071;-70
2020/12/23 02:41:05;;;;;;;19.20;10.98;;;;;;;-3.68;100.00;99646.91;1658063;86;21679;-70
2020/12/23 02:43:33;;;;;;;23.27;13.28;;;;;;;-3.70;100.00;99656.73;1643843;85;21055;-71
2020/12/23 02:46:02;;;;;;;22.20;13.75;;;;;;;-3.71;100.00;99644.11;1666748;86;21134;-69
2020/12/23 02:48:30;;;;;;;25.90;13.30;;;;;;;-3.74;100.00;99641.00;1667334;86;21174;-70
2020/12/23 02:50:58;;;;;;;31.25;15.30;;;;;;;-3.77;100.00;99634.73;1665391;84;27129;-69
2020/12/23 02:53:26;;;;;;;27.10;13.72;;;;;;;-3.78;100.00;99633.92;1626276;85;21249;-70
2020/12/23 02:55:54;;;;;;;23.85;14.58;;;;;;;-3.78;100.00;99632.61;1659618;84;21593;-70
2020/12/23 02:58:23;;;;;;;26.45;13.00;;;;;;;-3.80;100.00;99623.26;1663598;84;22880;-70
2020/12/23 03:00:50;;;;;;;24.45;13.78;;;;;;;-3.80;100.00;99628.50;1666163;85;21066;-70
2020/12/23 03:03:18;;;;;;;25.57;13.53;;;;;;;-3.82;100.00;99618.19;1666926;86;21501;-69
2020/12/23 03:05:46;;;;;;;29.27;16.40;;;;;;;-3.83;100.00;99617.84;1665507;84;21308;-70
2020/12/23 03:08:14;;;;;;;33.45;17.55;;;;;;;-3.86;100.00;99606.37;1661357;84;21114;-70
2020/12/23 03:10:42;;;;;;;29.95;19.15;;;;;;;-3.85;100.00;99605.37;1662227;84;21553;-69
2020/12/23 03:13:10;;;;;;;31.87;16.93;;;;;;;-3.86;100.00;99608.98;1667147;85;21043;-69
2020/12/23 03:15:38;;;;;;;31.93;15.78;;;;;;;-3.85;100.00;99610.62;1666275;84;21641;-69
2020/12/23 03:18:06;;;;;;;30.00;17.37;;;;;;;-3.86;100.00;99606.37;1630765;84;21226;-69
2020/12/23 03:20:34;;;;;;;34.48;19.80;;;;;;;-3.86;100.00;99601.12;1668287;84;21051;-70
2020/12/23 03:23:02;;;;;;;29.05;14.73;;;;;;;-3.86;100.00;99605.55;1660827;84;21494;-69
2020/12/23 03:25:30;;;;;;;32.88;17.42;;;;;;;-3.85;100.00;99606.69;1660688;84;21140;-70
2020/12/23 03:27:58;;;;;;;33.83;19.10;;;;;;;-3.84;100.00;99607.53;1666850;85;21149;-69
2020/12/23 03:30:26;;;;;;;33.05;17.90;;;;;;;-3.83;100.00;99602.11;1665170;84;21283;-70
2020/12/23 03:32:53;;;;;;;39.85;18.62;;;;;;;-3.83;100.00;99599.48;1666921;84;21094;-70
2020/12/23 03:35:21;;;;;;;35.83;18.40;;;;;;;-3.80;100.00;99583.91;1663739;84;21192;-69
2020/12/23 03:37:49;;;;;;;37.88;17.45;;;;;;;-3.81;100.00;99592.28;1660658;84;21492;-70
2020/12/23 03:40:17;;;;;;;25.35;15.68;;;;;;;-3.83;100.00;99588.99;1663605;84;21194;-68
2020/12/23 03:42:45;;;;;;;41.48;20.20;;;;;;;-3.81;100.00;99579.17;1661879;84;22618;-70
2020/12/23 03:45:13;;;;;;;33.25;17.90;;;;;;;-3.81;100.00;99578.35;1667424;84;21102;-71
2020/12/23 03:47:41;;;;;;;32.50;17.20;;;;;;;-3.79;100.00;99586.39;1666080;84;21812;-70
2020/12/23 03:50:09;;;;;;;35.80;15.20;;;;;;;-3.77;100.00;99578.34;1664517;84;21196;-69
2020/12/23 03:52:37;;;;;;;29.92;17.23;;;;;;;-3.77;100.00;99581.81;1666489;85;21104;-68
2020/12/23 03:55:09;;;;;;;33.45;19.02;;;;;;;-3.75;100.00;99569.83;1664788;84;21652;-68
2020/12/23 03:57:37;;;;;;;35.13;20.08;;;;;;;-3.73;100.00;99570.49;1667474;84;21106;-70
2020/12/23 04:00:09;;;;;;;33.88;21.10;;;;;;;-3.72;100.00;99561.16;1660698;84;21601;-70
2020/12/23 04:02:42;;;;;;;34.70;18.65;;;;;;;-3.70;100.00;99575.41;1662365;85;21205;-68
2020/12/23 04:05:10;;;;;;;25.65;14.28;;;;;;;-3.70;100.00;99569.70;1667159;84;21594;-70
2020/12/23 04:07:38;;;;;;;32.73;15.65;;;;;;;-3.68;100.00;99566.39;1666105;84;21296;-70
2020/12/23 04:10:07;;;;;;;34.08;17.30;;;;;;;-3.70;100.00;99568.38;1663934;84;21234;-69
2020/12/23 04:12:36;;;;;;;31.57;16.93;;;;;;;-3.68;100.00;99548.53;1641011;85;21069;-70
2020/12/23 04:15:08;;;;;;;29.23;17.35;;;;;;;-3.68;100.00;99563.77;1635695;85;21691;-70
2020/12/23 04:17:36;;;;;;;33.98;17.05;;;;;;;-3.66;100.00;99558.37;1641210;86;21187;-69
2020/12/23 04:20:06;;;;;;;39.65;20.00;;;;;;;-3.67;100.00;99554.94;1649361;85;21689;-70
2020/12/23 04:22:34;;;;;;;33.23;17.45;;;;;;;-3.65;100.00;99549.51;1661588;86;21372;-70
2020/12/23 04:25:09;;;;;;;35.43;18.80;;;;;;;-3.65;100.00;99553.44;1653108;85;21665;-71
2020/12/23 04:27:36;;;;;;;34.92;18.15;;;;;;;-3.63;100.00;99551.98;1643491;85;21081;-71
2020/12/23 04:30:05;;;;;;;36.67;17.63;;;;;;;-3.63;100.00;99551.48;1652534;85;21680;-70
2020/12/23 04:32:33;;;;;;;35.98;20.95;;;;;;;-3.63;100.00;99551.48;1642383;85;22123;-69
2020/12/23 04:35:03;;;;;;;39.95;17.57;;;;;;;-3.63;100.00;99548.86;1661389;86;21190;-70
2020/12/23 04:37:33;;;;;;;39.08;20.23;;;;;;;-3.63;100.00;99529.68;1588002;88;21243;-70
2020/12/23 04:40:05;;;;;;;34.67;17.37;;;;;;;-3.61;100.00;99542.97;1610056;87;21116;-70
2020/12/23 04:42:33;;;;;;;38.28;19.25;;;;;;;-3.61;100.00;99531.16;1609814;87;21174;-69
2020/12/23 04:45:02;;;;;;;38.08;18.85;;;;;;;-3.60;100.00;99534.13;1636905;86;22147;-69
2020/12/23 04:47:32;;;;;;;36.20;18.70;;;;;;;-3.59;100.00;99529.70;1671775;85;21181;-69
2020/12/23 04:50:00;;;;;;;41.48;18.62;;;;;;;-3.59;100.00;99516.08;1664807;84;21217;-70
2020/12/23 04:52:33;;;;;;;44.05;19.55;;;;;;;-3.56;100.00;99514.93;1668608;84;21078;-71
2020/12/23 04:55:05;;;;;;;32.60;18.25;;;;;;;-3.55;100.00;99528.36;1664953;84;21090;-69
2020/12/23 04:57:35;;;;;;;31.62;18.70;;;;;;;-3.53;100.00;99522.47;1668559;84;21219;-69
2020/12/23 05:00:07;;;;;;;38.38;17.92;;;;;;;-3.51;100.00;99521.32;1660523;84;21261;-70
2020/12/23 05:02:36;;;;;;;32.53;17.17;;;;;;;-3.51;100.00;99519.20;1674319;85;21110;-70
2020/12/23 05:05:06;;;;;;;33.63;18.50;;;;;;;-3.52;100.00;99522.31;1658388;84;21475;-71
2020/12/23 05:07:34;;;;;;;40.38;18.27;;;;;;;-3.53;100.00;99521.16;1662780;84;21088;-71
2020/12/23 05:10:02;;;;;;;36.40;19.48;;;;;;;-3.54;100.00;99518.22;1660990;84;22108;-71
2020/12/23 05:12:30;;;;;;;38.55;16.95;;;;;;;-3.54;100.00;99525.59;1633943;84;21209;-71
2020/12/23 05:15:11;;;;;;;38.57;21.53;;;;;;;-3.55;100.00;99521.34;1606371;85;21250;-70
2020/12/23 05:17:46;;;;;;;39.90;19.67;;;;;;;-3.54;100.00;99509.03;1661766;85;21166;-71
2020/12/23 05:20:14;;;;;;;39.67;19.60;;;;;;;-3.51;100.00;99515.26;1664243;84;21242;-71
2020/12/23 05:22:47;;;;;;;59.88;25.17;;;;;;;-3.50;100.00;99512.98;1666382;84;21662;-70
2020/12/23 05:25:17;;;;;;;40.90;21.23;;;;;;;-3.51;100.00;99510.82;1662501;84;21087;-70
2020/12/23 05:27:49;;;;;;;41.83;20.43;;;;;;;-3.50;100.00;99503.80;1665451;84;21103;-70
2020/12/23 05:30:19;;;;;;;43.65;22.90;;;;;;;-3.49;100.00;99506.73;1660396;84;21237;-69
2020/12/23 05:32:48;;;;;;;40.23;21.95;;;;;;;-3.48;100.00;99496.55;1658808;84;21166;-69
2020/12/23 05:35:16;;;;;;;30.23;14.43;;;;;;;-3.47;100.00;99500.84;1662620;84;21302;-68
2020/12/23 05:37:43;;;;;;;54.25;25.12;;;;;;;-3.49;100.00;99489.67;1667977;85;21135;-70
2020/12/23 05:40:12;;;;;;;37.60;19.30;;;;;;;-3.46;100.00;99497.22;1665617;84;21075;-69
2020/12/23 05:42:40;;;;;;;56.23;26.95;;;;;;;-3.47;100.00;99494.28;1666330;84;21134;-71
2020/12/23 05:45:09;;;;;;;41.80;19.27;;;;;;;-3.45;100.00;99489.19;1636606;86;21182;-70
2020/12/23 05:47:54;;;;;;;41.73;21.25;;;;;;;-3.42;100.00;99494.59;1663209;84;21439;-70
2020/12/23 05:50:24;;;;;;;47.90;23.20;;;;;;;-3.40;100.00;99497.07;1666264;84;21566;-71
2020/12/23 05:52:54;;;;;;;33.38;17.60;;;;;;;-3.40;100.00;99493.95;1608190;87;21169;-70
2020/12/23 05:55:22;;;;;;;42.80;20.88;;;;;;;-3.38;100.00;99506.88;1664349;84;21181;-71
2020/12/23 05:57:51;;;;;;;44.23;21.23;;;;;;;-3.37;100.00;99517.23;1660395;84;21236;-69
2020/12/23 06:00:19;;;;;;;36.03;19.20;;;;;;;-3.36;100.00;99514.92;1640511;84;21402;-69
2020/12/23 06:03:01;;;;;;;38.67;17.92;;;;;;;-3.36;100.00;99493.92;1667503;84;21093;-72
2020/12/23 06:05:29;;;;;;;32.65;16.57;;;;;;;-3.34;100.00;99502.45;1638298;86;21102;-71
2020/12/23 06:08:00;;;;;;;40.52;20.02;;;;;;;-3.33;100.00;99501.95;1619140;87;21389;-71
2020/12/23 06:10:31;;;;;;;41.73;21.87;;;;;;;-3.30;100.00;99497.22;1661870;85;21094;-72
2020/12/23 06:12:58;;;;;;;37.10;16.23;;;;;;;-3.29;100.00;99510.66;1661475;86;21213;-70
2020/12/23 06:15:30;;;;;;;44.00;17.02;;;;;;;-3.31;100.00;99503.93;1582985;88;21149;-70
2020/12/23 06:18:01;;;;;;;32.50;17.95;;;;;;;-3.31;100.00;99496.87;1663062;84;21145;-71
2020/12/23 06:20:33;;;;;;;52.75;22.80;;;;;;;-3.31;100.00;99494.74;1663600;84;21248;-71
2020/12/23 06:23:07;;;;;;;30.68;16.57;;;;;;;-3.32;100.00;99499.18;1637338;84;21644;-70
2020/12/23 06:25:46;;;;;;;32.73;17.12;;;;;;;-3.32;100.00;99510.17;1667230;84;21198;-71
2020/12/23 06:28:16;;;;;;;38.88;18.12;;;;;;;-3.33;100.00;99496.70;1663732;84;21508;-71
2020/12/23 06:30:44;;;;;;;42.13;20.97;;;;;;;-3.35;100.00;99500.02;1663907;84;21220;-72
2020/12/23 06:33:21;;;;;;;36.10;14.43;;;;;;;-3.37;100.00;99496.23;1649820;85;21213;-72
2020/12/23 06:35:56;;;;;;;38.38;18.65;;;;;;;-3.39;100.00;99504.76;1641856;84;21208;-72
2020/12/23 06:38:24;;;;;;;33.23;17.50;;;;;;;-3.38;100.00;99490.67;1643496;85;22507;-69
2020/12/23 06:41:09;;;;;;;40.55;17.75;;;;;;;-3.40;100.00;99496.57;1663495;85;21747;-69
2020/12/23 06:47:05;;;;;;;46.58;22.42;;;;;;;-3.36;100.00;99483.42;1844881;77;28236;-69
2020/12/23 06:49:57;;;;;;;39.95;19.98;;;;;;;-3.40;100.00;99491.82;1822575;78;21121;-70
2020/12/23 06:52:43;;;;;;;48.28;26.68;;;;;;;-3.38;100.00;99492.45;1822689;78;21194;-70
2020/12/23 06:55:42;;;;;;;;;;;;;;;;;;;;;
2020/12/23 06:58:07;;;;;;;37.45;18.75;;;;;;;-3.36;100.00;99499.17;1810916;78;21035;-72
2020/12/23 07:00:44;;;;;;;47.53;24.98;;;;;;;-3.34;100.00;99495.89;1820277;78;21742;-70
2020/12/23 07:03:24;;;;;;;54.42;25.35;;;;;;;-3.30;100.00;99484.59;1821793;78;21850;-71
2020/12/23 07:05:52;;;;;;;51.58;25.97;;;;;;;-3.29;100.00;99478.34;1766038;78;21270;-71
2020/12/23 07:08:20;;;;;;;36.93;17.67;;;;;;;-3.28;100.00;99484.75;1821881;78;20933;-71
2020/12/23 07:10:51;;;;;;;35.98;18.50;;;;;;;-3.27;100.00;99479.81;1822686;78;20997;-71
2020/12/23 07:13:32;;;;;;;40.05;18.48;;;;;;;-3.26;100.00;99480.16;1822713;78;21804;-70
2020/12/23 07:16:00;;;;;;;47.15;22.17;;;;;;;-3.24;100.00;99486.53;1822415;78;21060;-70
2020/12/23 07:18:29;;;;;;;45.45;23.12;;;;;;;-3.22;100.00;99488.51;1793956;78;21628;-70
2020/12/23 07:21:01;;;;;;;43.13;19.30;;;;;;;-3.21;100.00;99491.45;1822447;78;21071;-72
2020/12/23 07:23:31;;;;;;;36.53;16.85;;;;;;;-3.21;100.00;99488.01;1822920;78;20932;-70
2020/12/23 07:26:04;;;;;;;47.93;23.60;;;;;;;-3.21;100.00;99489.31;1822863;78;21000;-70
2020/12/23 07:28:59;;;;;;;38.73;16.77;;;;;;;-3.21;100.00;99476.19;1822794;78;21032;-71
2020/12/23 07:32:34;;;;;;;45.90;22.27;;;;;;;-3.16;100.00;99484.39;1804820;78;28205;-71
2020/12/23 07:35:44;;;;;;;;;;;;;;;;;;;;;
2020/12/23 07:38:40;;;;;;;30.12;14.73;;;;;;;-3.18;100.00;99464.88;1837459;77;21264;-70
2020/12/23 07:55:34;;;;;;;22.20;14.35;;;;;;;-2.94;100.00;99464.48;1744628;80;28314;-69
2020/12/23 08:08:51;;;;;;;33.48;20.20;;;;;;;-2.83;100.00;99469.38;1782926;80;27945;-70
2020/12/23 08:11:19;;;;;;;40.00;20.50;;;;;;;-2.84;100.00;99474.33;1733233;82;21138;-71
2020/12/23 08:13:48;;;;;;;46.37;24.02;;;;;;;-2.84;100.00;99467.76;1733300;82;22143;-70
2020/12/23 08:16:16;;;;;;;60.95;30.92;;;;;;;-2.88;100.00;99471.20;1733622;82;21038;-71
2020/12/23 08:18:44;;;;;;;45.78;24.20;;;;;;;-2.84;100.00;99474.33;1734086;82;20926;-72
2020/12/23 08:21:19;;;;;;;161.97;77.37;;;;;;;-2.86;100.00;99463.98;1749029;82;20939;-69
2020/12/23 08:23:47;;;;;;;167.13;69.35;;;;;;;-2.87;100.00;99462.81;1749176;82;21039;-71
2020/12/23 08:26:15;;;;;;;82.80;43.00;;;;;;;-2.87;100.00;99469.39;1749599;82;21182;-70
2020/12/23 08:28:48;;;;;;;39.78;20.20;;;;;;;-2.86;100.00;99463.16;1748907;82;21022;-69
2020/12/23 08:31:30;;;;;;;49.90;25.45;;;;;;;-2.85;100.00;99450.34;1749409;82;20959;-72
2020/12/23 08:34:00;;;;;;;46.30;24.12;;;;;;;-2.83;100.00;99453.63;1749105;81;21133;-70
2020/12/23 08:36:33;;;;;;;74.53;38.38;;;;;;;-2.81;100.00;99451.65;1749162;82;21125;-71
2020/12/23 08:39:06;;;;;;;30.62;16.87;;;;;;;-2.78;100.00;99455.24;1749283;82;21600;-70
2020/12/23 08:41:34;;;;;;;39.23;20.10;;;;;;;-2.76;100.00;99448.52;1748807;81;20955;-70
2020/12/23 08:44:03;;;;;;;40.65;21.82;;;;;;;-2.75;100.00;99452.77;1749418;82;20923;-71
2020/12/23 08:46:31;;;;;;;72.47;42.67;;;;;;;-2.76;100.00;99441.95;1749403;82;21058;-71
2020/12/23 08:49:00;;;;;;;54.23;26.68;;;;;;;-2.73;100.00;99449.48;1749754;82;21733;-71
2020/12/23 08:51:28;;;;;;;53.13;28.67;;;;;;;-2.70;100.00;99447.82;1749594;82;21443;-71
2020/12/23 08:53:56;;;;;;;60.98;29.50;;;;;;;-2.70;100.00;99446.01;1749667;82;21160;-71
2020/12/23 08:56:28;;;;;;;46.60;24.50;;;;;;;-2.66;100.00;99432.05;1749522;81;21022;-70
2020/12/23 08:59:03;;;;;;;40.63;20.68;;;;;;;-2.63;100.00;99435.64;1749485;82;21062;-71
2020/12/23 09:01:33;;;;;;;64.75;31.23;;;;;;;-2.61;100.00;99426.59;1748895;81;21006;-70
2020/12/23 09:04:09;;;;;;;42.17;23.00;;;;;;;-2.57;100.00;99427.09;1749629;82;22341;-71
2020/12/23 09:06:44;;;;;;;40.65;20.82;;;;;;;-2.54;100.00;99424.11;1749459;82;20959;-72
2020/12/23 09:09:21;;;;;;;45.63;24.37;;;;;;;-2.49;100.00;99419.15;1748935;82;20951;-71
2020/12/23 09:11:53;;;;;;;46.58;20.43;;;;;;;-2.50;100.00;99411.42;1749050;82;21018;-70
2020/12/23 09:14:36;;;;;;;45.83;21.77;;;;;;;-2.47;100.00;99411.91;1748931;82;20959;-71
2020/12/23 09:17:14;;;;;;;38.25;20.90;;;;;;;-2.49;100.00;99413.08;1748889;82;21372;-72
2020/12/23 09:20:01;;;;;;;69.20;34.92;;;;;;;-2.45;100.00;99406.47;1748979;82;20951;-70
2020/12/23 09:22:39;;;;;;;64.07;32.33;;;;;;;-2.41;100.00;99405.95;1749631;82;21006;-71
2020/12/23 09:28:09;;;;;;;38.23;21.55;;;;;;;-2.39;100.00;99393.45;1852275;77;28067;-70
2020/12/23 09:30:46;;;;;;;71.70;39.55;;;;;;;-2.46;100.00;99391.70;1819941;78;21110;-71
2020/12/23 09:33:22;;;;;;;46.00;20.20;;;;;;;-2.45;100.00;99392.01;1750134;81;21370;-71
2020/12/23 09:35:56;;;;;;;65.72;33.40;;;;;;;-2.45;100.00;99389.38;1819868;78;21003;-70
2020/12/23 09:38:27;;;;;;;55.08;28.67;;;;;;;-2.41;100.00;99389.37;1746565;82;21023;-70
2020/12/23 09:40:59;;;;;;;47.95;24.00;;;;;;;-2.39;100.00;99390.83;1819839;78;20991;-70
2020/12/23 09:43:30;;;;;;;56.65;27.58;;;;;;;-2.34;100.00;99388.18;1750119;81;20991;-71
2020/12/23 09:46:04;;;;;;;49.18;23.32;;;;;;;-2.29;100.00;99391.11;1819820;78;22110;-70
2020/12/23 09:48:32;;;;;;;64.82;36.70;;;;;;;-2.24;100.00;99373.80;1750087;81;21509;-70
2020/12/23 09:51:01;;;;;;;52.43;24.07;;;;;;;-2.16;100.00;99367.66;1820078;78;21640;-70
2020/12/23 09:53:30;;;;;;;60.17;29.32;;;;;;;-2.15;100.00;99361.42;1750217;82;21056;-71
2020/12/23 09:56:07;;;;;;;54.77;26.48;;;;;;;-2.13;100.00;99366.02;1819395;78;20864;-70
2020/12/23 09:58:36;;;;;;;60.17;31.20;;;;;;;-2.16;100.00;99361.09;1819345;78;21545;-71
2020/12/23 10:01:06;;;;;;;42.93;22.73;;;;;;;-2.13;100.00;99361.23;1748457;82;21229;-70
2020/12/23 10:03:34;;;;;;;66.67;36.77;;;;;;;-2.16;100.00;99350.09;1818742;78;21640;-71
2020/12/23 10:06:03;;;;;;;59.42;29.45;;;;;;;-2.15;100.00;99344.33;1749604;81;21105;-71
2020/12/23 10:08:31;;;;;;;48.45;21.68;;;;;;;-2.13;100.00;99337.09;1819717;78;21038;-70
2020/12/23 10:11:01;;;;;;;50.92;25.77;;;;;;;-2.16;100.00;99331.69;1750065;81;26822;-70
2020/12/23 10:13:29;;;;;;;48.28;25.97;;;;;;;-2.08;100.00;99341.32;1819138;78;21002;-71
2020/12/23 10:15:58;;;;;;;43.35;21.25;;;;;;;-2.05;100.00;99336.20;1791183;78;21632;-71
2020/12/23 10:18:26;;;;;;;53.65;22.45;;;;;;;-2.03;100.00;99335.53;1787312;78;20991;-72
2020/12/23 10:20:54;;;;;;;52.13;20.48;;;;;;;-2.03;100.00;99327.64;1746273;82;21198;-71
2020/12/23 10:23:24;;;;;;;37.80;20.30;;;;;;;-2.01;100.00;99329.57;1761144;80;21144;-71
2020/12/23 10:25:57;;;;;;;43.95;24.20;;;;;;;-2.01;100.00;99322.52;1753952;80;21003;-71
2020/12/23 10:28:38;;;;;;;55.20;24.90;;;;;;;-2.01;100.00;99334.36;1793684;78;21034;-70
2020/12/23 10:31:07;;;;;;;41.25;20.05;;;;;;;-1.96;100.00;99329.38;1795175;78;21153;-71
2020/12/23 10:33:36;;;;;;;39.98;19.05;;;;;;;-1.97;100.00;99318.52;1791498;78;21152;-70
2020/12/23 10:36:14;;;;;;;38.50;20.10;;;;;;;-1.91;100.00;99321.43;1797562;78;21141;-72
2020/12/23 10:38:43;;;;;;;41.48;20.32;;;;;;;-1.91;100.00;99323.59;1799286;78;21175;-70
2020/12/23 10:41:12;;;;;;;;;;;;;;;-1.86;100.00;99321.70;1789408;80;20877;-72
2020/12/23 10:43:42;;;;;;;41.92;18.05;;;;;;;-1.82;100.00;99320.36;1748144;80;20153;-71
2020/12/23 10:46:10;;;;;;;48.25;23.38;;;;;;;-1.83;100.00;99315.61;1786584;80;20956;-70
2020/12/23 10:48:39;;;;;;;45.20;21.70;;;;;;;-1.81;100.00;99315.44;1787011;80;21205;-71
2020/12/23 10:51:08;;;;;;;41.70;21.27;;;;;;;-1.77;100.00;99310.11;1786490;80;21185;-71
2020/12/23 10:53:37;;;;;;;51.25;25.70;;;;;;;-1.77;100.00;99310.11;1788162;78;20996;-71
2020/12/23 10:56:09;;;;;;;32.48;16.60;;;;;;;-1.77;100.00;99297.77;1817194;78;21121;-71
2020/12/23 10:58:37;;;;;;;48.92;26.90;;;;;;;-1.79;100.00;99295.00;1819004;78;21011;-71
2020/12/23 11:01:07;;;;;;;44.40;22.55;;;;;;;-1.78;100.00;99303.23;1818966;78;22046;-71
2020/12/23 11:03:36;;;;;;;49.93;25.77;;;;;;;-1.80;100.00;99311.30;1818324;78;21125;-70
2020/12/23 11:06:05;;;;;;;44.85;23.57;;;;;;;-1.78;100.00;99300.59;1818952;78;21007;-72
2020/12/23 11:08:36;;;;;;;42.15;21.75;;;;;;;-1.75;100.00;99296.28;1819131;78;21050;-71
2020/12/23 11:11:06;;;;;;;42.13;22.15;;;;;;;-1.72;100.00;99306.44;1818596;78;21015;-71
2020/12/23 11:13:38;;;;;;;37.55;19.50;;;;;;;-1.70;100.00;99303.14;1818585;78;21256;-71
2020/12/23 11:16:06;;;;;;;32.35;17.40;;;;;;;-1.68;100.00;99298.52;1787882;78;21153;-70
2020/12/23 11:18:35;;;;;;;37.75;19.45;;;;;;;-1.66;100.00;99306.24;1818924;78;21003;-71
2020/12/23 11:21:03;;;;;;;38.17;19.95;;;;;;;-1.66;100.00;99291.27;1818942;78;20999;-70
2020/12/23 11:23:32;;;;;;;52.33;22.60;;;;;;;-1.63;100.00;99296.66;1817970;78;21030;-70
2020/12/23 11:26:01;;;;;;;48.13;22.42;;;;;;;-1.62;100.00;99299.09;1819079;78;21815;-72
2020/12/23 11:28:32;;;;;;;42.35;22.07;;;;;;;-1.58;100.00;99289.84;1818973;78;20935;-71
2020/12/23 11:31:01;;;;;;;42.38;21.23;;;;;;;-1.55;100.00;99292.11;1819229;78;20919;-71
2020/12/23 11:33:30;;;;;;;41.77;20.68;;;;;;;-1.54;100.00;99292.45;1819092;78;20905;-70
2020/12/23 11:35:58;;;;;;;28.12;15.00;;;;;;;-1.52;100.00;99301.45;1819350;78;20991;-72
2020/12/23 11:38:27;;;;;;;53.25;27.48;;;;;;;-1.53;100.00;99292.75;1819229;78;21111;-71
2020/12/23 11:40:55;;;;;;;45.50;22.70;;;;;;;-1.50;100.00;99292.88;1819364;78;21554;-70
2020/12/23 11:43:23;;;;;;;47.38;23.45;;;;;;;-1.45;100.00;99296.29;1819345;78;20911;-72
2020/12/23 11:45:51;;;;;;;45.65;22.02;;;;;;;-1.41;100.00;99294.43;1819308;78;20915;-71
2020/12/23 11:48:19;;;;;;;52.15;24.65;;;;;;;-1.38;100.00;99287.98;1819337;78;21054;-71
2020/12/23 11:50:47;;;;;;;53.95;28.30;;;;;;;-1.40;100.00;99280.25;1819264;78;21189;-71
2020/12/23 11:53:15;;;;;;;52.30;25.55;;;;;;;-1.43;100.00;99276.68;1819253;78;20983;-71
2020/12/23 11:55:44;;;;;;;54.18;28.55;;;;;;;-1.44;100.00;99272.93;1819397;78;28510;-71
2020/12/23 11:58:12;;;;;;;54.83;30.37;;;;;;;-1.45;100.00;99269.97;1819380;78;22398;-73
2020/12/23 12:00:40;;;;;;;62.08;33.73;;;;;;;-1.46;100.00;99270.47;1787886;78;20916;-71